createdAt,value
2019-04-03T00:00:14.184Z,39.20
2019-04-03T00:02:43.688Z,41.13
2019-04-03T00:05:13.129Z,39.77
2019-04-03T00:07:42.397Z,38.33
2019-04-03T00:10:12.333Z,37.87
2019-04-03T00:12:42.002Z,39.73
2019-04-03T00:15:13.673Z,37.57
2019-04-03T00:17:45.294Z,39.23
2019-04-03T00:20:14.243Z,39.30
2019-04-03T00:22:45.915Z,37.80
2019-04-03T00:25:14.570Z,38.70
2019-04-03T00:27:43.762Z,41.83
2019-04-03T00:30:13.774Z,39.87
2019-04-03T00:32:43.343Z,39.73
2019-04-03T00:35:12.633Z,40.20
2019-04-03T00:37:42.071Z,39.73
2019-04-03T00:40:11.835Z,38.83
2019-04-03T00:42:41.073Z,38.30
2019-04-03T00:45:15.588Z,38.47
2019-04-03T00:47:45.622Z,39.70
2019-04-03T00:50:15.881Z,41.17
2019-04-03T00:52:45.596Z,43.50
2019-04-03T00:55:15.140Z,42.60
2019-04-03T00:57:44.944Z,44.73
2019-04-03T01:00:15.628Z,46.83
2019-04-03T01:02:44.961Z,47.20
2019-04-03T01:05:14.114Z,45.30
2019-04-03T01:07:43.800Z,49.47
2019-04-03T01:10:13.827Z,47.47
2019-04-03T01:12:44.544Z,48.87
2019-04-03T01:15:13.799Z,48.40
2019-04-03T01:17:42.955Z,48.03
2019-04-03T01:20:11.874Z,47.13
2019-04-03T01:22:40.988Z,49.70
2019-04-03T01:25:10.962Z,48.70
2019-04-03T01:27:41.767Z,47.20
2019-04-03T01:30:12.176Z,45.77
2019-04-03T01:32:42.931Z,47.17
2019-04-03T01:35:12.212Z,47.93
2019-04-03T01:37:41.307Z,47.33
2019-04-03T01:40:10.866Z,50.00
2019-04-03T01:42:39.888Z,48.10
2019-04-03T01:45:09.563Z,47.63
2019-04-03T01:47:39.174Z,49.40
2019-04-03T01:50:09.219Z,47.90
2019-04-03T01:52:40.059Z,49.87
2019-04-03T01:55:09.667Z,50.37
2019-04-03T01:57:39.600Z,45.30
2019-04-03T02:00:09.639Z,50.20
2019-04-03T02:02:39.233Z,48.33
2019-04-03T02:05:10.652Z,49.43
2019-04-03T02:07:40.552Z,47.60
2019-04-03T02:10:17.795Z,49.93
2019-04-03T02:12:50.622Z,51.13
2019-04-03T02:15:21.610Z,50.37
2019-04-03T02:17:54.213Z,52.97
2019-04-03T02:20:22.485Z,52.00
2019-04-03T02:22:51.475Z,49.67
2019-04-03T02:25:20.896Z,52.30
2019-04-03T02:27:50.165Z,51.60
2019-04-03T02:30:19.976Z,52.60
2019-04-03T02:32:50.602Z,50.73
2019-04-03T02:35:20.168Z,51.77
2019-04-03T02:37:50.635Z,53.93
2019-04-03T02:40:20.514Z,52.83
2019-04-03T02:42:50.205Z,53.80
2019-04-03T02:45:22.784Z,52.97
2019-04-03T02:47:50.916Z,53.20
2019-04-03T02:50:24.499Z,51.07
2019-04-03T02:52:57.994Z,51.60
2019-04-03T02:55:26.802Z,53.60
2019-04-03T02:57:56.591Z,50.77
2019-04-03T03:00:26.220Z,53.20
2019-04-03T03:02:55.491Z,46.10
2019-04-03T03:05:28.112Z,51.53
2019-04-03T03:07:57.702Z,53.10
2019-04-03T03:10:30.625Z,50.60
2019-04-03T03:13:01.042Z,49.80
2019-04-03T03:15:30.469Z,49.97
2019-04-03T03:18:00.305Z,46.93
2019-04-03T03:20:30.190Z,50.37
2019-04-03T03:23:01.088Z,49.07
2019-04-03T03:25:33.307Z,48.07
2019-04-03T03:28:04.406Z,47.10
2019-04-03T03:30:44.299Z,48.63
2019-04-03T03:33:27.325Z,49.30
2019-04-03T03:35:44.812Z,45.20
2019-04-03T03:38:11.818Z,48.53
2019-04-03T03:40:42.800Z,45.53
2019-04-03T03:43:13.387Z,46.70
2019-04-03T03:45:44.230Z,44.63
2019-04-03T03:48:14.602Z,44.77
2019-04-03T03:50:45.660Z,45.57
2019-04-03T03:53:18.898Z,44.57
2019-04-03T03:55:50.224Z,44.53
2019-04-03T03:58:21.149Z,45.23
2019-04-03T04:00:52.152Z,44.07
2019-04-03T04:03:23.630Z,44.33
2019-04-03T04:05:55.877Z,44.53
2019-04-03T04:08:25.352Z,42.07
2019-04-03T04:10:58.114Z,42.97
2019-04-03T04:13:27.697Z,43.23
2019-04-03T04:16:02.198Z,40.37
2019-04-03T04:18:30.297Z,39.20
2019-04-03T04:21:00.611Z,40.77
2019-04-03T04:23:30.645Z,42.73
2019-04-03T04:26:03.057Z,41.53
2019-04-03T04:28:32.972Z,39.90
2019-04-03T04:31:02.024Z,39.13
2019-04-03T04:33:31.792Z,39.97
2019-04-03T04:36:01.554Z,38.43
2019-04-03T04:38:30.980Z,40.70
2019-04-03T04:41:01.836Z,39.33
2019-04-03T04:43:31.433Z,41.27
2019-04-03T04:46:00.485Z,40.67
2019-04-03T04:48:30.902Z,39.43
2019-04-03T04:51:00.685Z,36.50
2019-04-03T04:53:30.821Z,38.93
2019-04-03T04:56:01.071Z,40.03
2019-04-03T04:58:30.776Z,40.23
2019-04-03T05:01:00.702Z,40.07
2019-04-03T05:03:29.813Z,39.63
2019-04-03T05:05:59.096Z,39.30
2019-04-03T05:08:30.851Z,39.17
2019-04-03T05:11:00.930Z,38.83
2019-04-03T05:13:30.713Z,39.33
2019-04-03T05:16:01.070Z,39.53
2019-04-03T05:18:31.551Z,38.70
2019-04-03T05:21:01.955Z,40.07
2019-04-03T05:23:32.204Z,39.13
2019-04-03T05:26:02.280Z,39.80
2019-04-03T05:28:33.978Z,39.20
2019-04-03T05:31:06.334Z,40.80
2019-04-03T05:33:35.936Z,41.27
2019-04-03T05:36:06.240Z,39.17
2019-04-03T05:38:38.017Z,40.23
2019-04-03T05:41:08.200Z,39.73
2019-04-03T05:43:38.011Z,40.57
2019-04-03T05:46:07.382Z,37.40
2019-04-03T05:48:36.934Z,38.03
2019-04-03T05:51:06.267Z,39.67
2019-04-03T05:53:38.041Z,38.10
2019-04-03T05:56:07.941Z,40.63
2019-04-03T05:58:37.972Z,38.63
2019-04-03T06:01:10.617Z,38.10
2019-04-03T06:03:44.284Z,38.97
2019-04-03T06:06:10.103Z,38.87
2019-04-03T06:08:39.762Z,36.87
2019-04-03T06:11:09.482Z,37.17
2019-04-03T06:13:39.691Z,38.00
2019-04-03T06:16:09.237Z,37.23
2019-04-03T06:18:38.658Z,37.43
2019-04-03T06:21:07.773Z,34.87
2019-04-03T06:23:37.259Z,34.63
2019-04-03T06:26:07.349Z,35.10
2019-04-03T06:28:36.680Z,35.13
2019-04-03T06:31:08.107Z,35.73
2019-04-03T06:33:37.217Z,36.20
2019-04-03T06:36:07.849Z,35.90
2019-04-03T06:38:37.752Z,32.93
2019-04-03T06:41:08.752Z,34.83
2019-04-03T06:43:38.921Z,33.13
2019-04-03T06:46:09.020Z,35.77
2019-04-03T06:48:38.550Z,34.00
2019-04-03T06:51:08.265Z,33.27
2019-04-03T06:53:39.128Z,33.63
2019-04-03T06:56:09.071Z,32.03
2019-04-03T06:58:39.848Z,31.47
2019-04-03T07:01:09.923Z,28.73
2019-04-03T07:03:39.231Z,29.30
2019-04-03T07:06:09.043Z,30.80
2019-04-03T07:08:40.122Z,29.13
2019-04-03T07:11:22.415Z,28.43
2019-04-03T07:13:41.652Z,27.23
2019-04-03T07:16:10.817Z,27.60
2019-04-03T07:18:40.161Z,28.07
2019-04-03T07:21:09.960Z,27.20
2019-04-03T07:23:39.733Z,27.17
2019-04-03T07:26:09.050Z,27.53
2019-04-03T07:28:40.659Z,26.67
2019-04-03T07:31:09.200Z,26.30
2019-04-03T07:33:38.365Z,27.17
2019-04-03T07:36:08.766Z,28.63
2019-04-03T07:38:39.053Z,28.20
2019-04-03T07:41:08.338Z,27.70
2019-04-03T07:43:38.173Z,26.97
2019-04-03T07:46:07.930Z,27.67
2019-04-03T07:48:37.956Z,26.60
2019-04-03T07:51:07.609Z,25.03
2019-04-03T07:53:36.311Z,24.13
2019-04-03T07:56:05.192Z,27.03
2019-04-03T07:58:34.099Z,27.60
2019-04-03T08:01:02.932Z,28.57
2019-04-03T08:06:12.540Z,27.70
2019-04-03T08:08:42.253Z,29.00
2019-04-03T08:11:14.268Z,26.80
2019-04-03T08:13:42.003Z,26.73
2019-04-03T08:16:10.855Z,29.10
2019-04-03T08:18:41.025Z,32.13
2019-04-03T08:21:10.840Z,29.40
2019-04-03T08:23:39.715Z,29.17
2019-04-03T08:26:11.267Z,28.90
2019-04-03T08:28:38.986Z,28.03
2019-04-03T08:31:10.860Z,28.23
2019-04-03T08:33:38.239Z,28.83
2019-04-03T08:36:08.652Z,29.43
2019-04-03T08:38:38.691Z,28.67
2019-04-03T08:41:10.860Z,27.97
2019-04-03T08:43:43.387Z,28.50
2019-04-03T08:46:16.160Z,27.17
2019-04-03T08:48:45.552Z,26.60
2019-04-03T08:51:14.383Z,24.77
2019-04-03T08:53:43.060Z,26.10
2019-04-03T08:56:11.674Z,27.47
2019-04-03T08:58:41.434Z,26.80
2019-04-03T09:01:11.132Z,26.60
2019-04-03T09:03:39.940Z,24.93
2019-04-03T09:06:09.137Z,24.50
2019-04-03T09:08:38.232Z,26.60
2019-04-03T09:11:07.147Z,24.70
2019-04-03T09:13:36.133Z,27.10
2019-04-03T09:16:05.131Z,28.20
2019-04-03T09:18:38.042Z,28.37
2019-04-03T09:21:06.058Z,28.10
2019-04-03T09:23:34.767Z,26.73
2019-04-03T09:26:04.216Z,28.47
2019-04-03T09:28:32.887Z,27.73
2019-04-03T09:31:04.833Z,30.27
2019-04-03T09:33:34.891Z,26.70
2019-04-03T09:36:04.580Z,27.23
2019-04-03T09:38:35.285Z,28.40
2019-04-03T09:41:04.033Z,27.93
2019-04-03T09:43:32.876Z,27.67
2019-04-03T09:46:01.809Z,26.70
2019-04-03T09:48:31.536Z,27.17
2019-04-03T09:51:01.573Z,28.50
2019-04-03T09:53:30.567Z,28.47
2019-04-03T09:55:59.242Z,28.07
2019-04-03T09:58:28.458Z,26.43
2019-04-03T10:00:57.456Z,28.50
2019-04-03T10:03:27.161Z,24.97
2019-04-03T10:05:56.458Z,26.10
2019-04-03T10:08:26.058Z,24.97
2019-04-03T10:10:55.888Z,24.60
2019-04-03T10:13:25.901Z,26.30
2019-04-03T10:15:55.151Z,22.27
2019-04-03T10:18:23.903Z,21.53
2019-04-03T10:20:52.534Z,23.93
2019-04-03T10:23:22.237Z,22.37
2019-04-03T10:25:52.951Z,23.90
2019-04-03T10:28:21.405Z,24.00
2019-04-03T10:30:52.472Z,23.43
2019-04-03T10:33:20.444Z,25.87
2019-04-03T10:35:49.159Z,25.73
2019-04-03T10:38:18.219Z,23.57
2019-04-03T10:40:47.806Z,24.57
2019-04-03T10:43:37.671Z,27.13
2019-04-03T10:46:07.662Z,26.30
2019-04-03T10:48:37.162Z,25.57
2019-04-03T10:51:09.035Z,17.53
2019-04-03T10:53:42.087Z,17.57
2019-04-03T10:56:11.259Z,15.30
2019-04-03T10:58:43.427Z,16.00
2019-04-03T11:01:12.222Z,17.13
2019-04-03T11:03:41.313Z,16.17
2019-04-03T11:06:10.400Z,16.90
2019-04-03T11:08:40.143Z,13.03
2019-04-03T11:11:09.390Z,12.50
2019-04-03T11:13:38.828Z,12.73
2019-04-03T11:16:08.400Z,13.10
2019-04-03T11:18:38.010Z,13.67
2019-04-03T11:21:09.113Z,12.70
2019-04-03T11:23:43.700Z,12.73
2019-04-03T11:26:10.533Z,13.23
2019-04-03T11:28:40.225Z,11.63
2019-04-03T11:31:10.250Z,11.20
2019-04-03T11:33:39.984Z,11.57
2019-04-03T11:36:10.341Z,14.10
2019-04-03T11:38:40.199Z,13.70
2019-04-03T11:41:17.665Z,13.73
2019-04-03T11:43:44.955Z,13.90
2019-04-03T11:46:15.338Z,13.07
2019-04-03T11:48:46.070Z,13.40
2019-04-03T11:51:35.771Z,11.77
2019-04-03T11:54:08.616Z,13.57
2019-04-03T11:56:39.116Z,13.33
2019-04-03T11:59:10.067Z,14.23
2019-04-03T12:01:39.262Z,12.80
2019-04-03T12:04:07.922Z,12.63
2019-04-03T12:06:36.976Z,14.10
2019-04-03T12:09:07.879Z,14.63
2019-04-03T12:11:38.708Z,13.60
2019-04-03T12:14:11.156Z,14.43
2019-04-03T12:16:43.651Z,15.20
2019-04-03T12:19:13.809Z,15.57
2019-04-03T12:21:43.575Z,16.10
2019-04-03T12:24:17.099Z,13.00
2019-04-03T12:26:48.210Z,14.73
2019-04-03T12:29:21.490Z,10.00
2019-04-03T12:31:50.540Z,9.70
2019-04-03T12:34:22.666Z,9.07
2019-04-03T12:36:51.154Z,10.93
2019-04-03T12:39:28.247Z,10.23
2019-04-03T12:41:59.294Z,8.00
2019-04-03T12:44:28.803Z,9.30
2019-04-03T12:46:58.358Z,9.90
2019-04-03T12:49:27.909Z,7.03
2019-04-03T12:51:57.201Z,6.17
2019-04-03T12:54:26.872Z,6.73
2019-04-03T12:56:56.465Z,5.30
2019-04-03T12:59:27.092Z,5.67
2019-04-03T13:01:58.378Z,6.30
2019-04-03T13:04:30.248Z,7.07
2019-04-03T13:07:01.180Z,8.70
2019-04-03T13:09:30.872Z,9.13
2019-04-03T13:12:04.007Z,10.60
2019-04-03T13:14:34.695Z,10.73
2019-04-03T13:17:05.290Z,10.77
2019-04-03T13:19:35.768Z,11.53
2019-04-03T13:22:10.263Z,11.77
2019-04-03T13:24:40.824Z,13.20
2019-04-03T13:30:11.455Z,13.20
2019-04-03T13:32:40.205Z,15.00
2019-04-03T13:35:15.586Z,14.40
2019-04-03T13:37:46.319Z,15.57
2019-04-03T13:40:16.093Z,15.10
2019-04-03T13:42:48.805Z,16.13
2019-04-03T13:45:19.317Z,15.27
2019-04-03T13:47:48.869Z,15.70
2019-04-03T13:50:22.355Z,15.63
2019-04-03T13:52:51.381Z,15.43
2019-04-03T13:55:22.717Z,13.67
2019-04-03T13:57:53.855Z,11.33
2019-04-03T14:00:25.531Z,9.80
2019-04-03T14:02:57.682Z,10.03
2019-04-03T14:05:32.333Z,9.60
2019-04-03T14:08:01.387Z,9.67
2019-04-03T14:10:33.024Z,9.90
2019-04-03T14:13:02.874Z,9.27
2019-04-03T14:15:32.461Z,9.83
2019-04-03T14:18:02.652Z,7.93
2019-04-03T14:20:34.293Z,9.10
2019-04-03T14:23:06.634Z,8.70
2019-04-03T14:25:39.054Z,8.33
2019-04-03T14:28:10.259Z,7.87
2019-04-03T14:30:40.699Z,7.80
2019-04-03T14:33:12.365Z,7.40
2019-04-03T14:35:50.416Z,6.97
2019-04-03T14:38:16.676Z,6.60
2019-04-03T14:40:46.972Z,5.80
2019-04-03T14:43:17.436Z,5.30
2019-04-03T14:45:47.662Z,4.97
2019-04-03T14:48:17.645Z,5.00
2019-04-03T14:50:47.500Z,4.60
2019-04-03T14:53:19.309Z,4.87
2019-04-03T14:55:50.040Z,4.30
2019-04-03T14:58:20.487Z,4.33
2019-04-03T15:00:51.362Z,4.87
2019-04-03T15:03:21.369Z,8.17
2019-04-03T15:05:52.404Z,6.80
2019-04-03T15:08:23.918Z,6.33
2019-04-03T15:10:55.701Z,7.17
2019-04-03T15:13:26.712Z,7.50
2019-04-03T15:15:58.822Z,7.00
2019-04-03T15:18:30.214Z,8.70
2019-04-03T15:21:01.007Z,11.10
2019-04-03T15:23:35.784Z,9.93
2019-04-03T15:26:06.791Z,9.67
2019-04-03T15:28:37.798Z,9.90
2019-04-03T15:31:08.249Z,10.87
2019-04-03T15:33:38.237Z,12.43
2019-04-03T15:36:09.183Z,11.60
2019-04-03T15:38:39.481Z,11.70
2019-04-03T15:41:10.216Z,11.17
2019-04-03T15:43:39.893Z,12.67
2019-04-03T15:46:09.679Z,13.50
2019-04-03T15:48:42.628Z,12.83
2019-04-03T15:51:25.793Z,11.47
2019-04-03T15:54:14.873Z,11.20
2019-04-03T15:56:45.801Z,11.30
2019-04-03T15:59:16.001Z,10.70
2019-04-03T16:01:47.275Z,13.43
2019-04-03T16:04:20.755Z,12.80
2019-04-03T16:06:51.851Z,11.73
2019-04-03T16:09:23.492Z,10.63
2019-04-03T16:11:54.023Z,11.13
2019-04-03T16:14:24.090Z,12.33
2019-04-03T16:16:54.805Z,14.80
2019-04-03T16:19:24.924Z,15.30
2019-04-03T16:21:56.932Z,18.83
2019-04-03T16:24:26.945Z,16.73
2019-04-03T16:26:57.619Z,15.27
2019-04-03T16:29:29.789Z,15.83
2019-04-03T16:31:58.821Z,16.47
2019-04-03T16:34:31.521Z,16.50
2019-04-03T16:37:06.027Z,14.83
2019-04-03T16:39:37.983Z,14.23
2019-04-03T16:42:08.523Z,15.77
2019-04-03T16:44:47.373Z,15.17
2019-04-03T16:47:21.846Z,15.20
2019-04-03T16:49:55.908Z,14.10
2019-04-03T16:52:26.025Z,15.63
2019-04-03T16:54:55.947Z,13.83
2019-04-03T16:57:28.033Z,12.97
2019-04-03T16:59:57.768Z,14.00
2019-04-03T17:02:29.989Z,14.03
2019-04-03T17:04:59.693Z,14.03
2019-04-03T17:07:30.323Z,13.77
2019-04-03T17:10:00.079Z,13.13
2019-04-03T17:12:29.677Z,14.17
2019-04-03T17:14:59.331Z,14.27
2019-04-03T17:17:29.226Z,13.50
2019-04-03T17:19:58.627Z,12.83
2019-04-03T17:22:27.903Z,11.97
2019-04-03T17:24:57.227Z,12.50
2019-04-03T17:27:29.645Z,12.07
2019-04-03T17:29:58.598Z,11.93
2019-04-03T17:32:34.737Z,12.53
2019-04-03T17:35:06.862Z,12.93
2019-04-03T17:37:35.424Z,13.20
2019-04-03T17:40:05.964Z,14.50
2019-04-03T17:42:37.111Z,13.90
2019-04-03T17:45:06.635Z,14.47
2019-04-03T17:47:36.331Z,15.53
2019-04-03T17:50:06.299Z,15.80
2019-04-03T17:52:36.499Z,13.97
2019-04-03T17:55:07.846Z,14.70
2019-04-03T17:57:38.309Z,15.27
2019-04-03T18:00:11.470Z,14.53
2019-04-03T18:02:42.051Z,14.37
2019-04-03T18:05:12.917Z,14.43
2019-04-03T18:07:44.825Z,14.20
2019-04-03T18:10:17.587Z,11.20
2019-04-03T18:12:50.176Z,12.33
2019-04-03T18:15:21.030Z,11.67
2019-04-03T18:17:50.333Z,12.10
2019-04-03T18:20:20.809Z,10.57
2019-04-03T18:22:51.969Z,9.17
2019-04-03T18:25:23.310Z,8.70
2019-04-03T18:27:56.238Z,9.70
2019-04-03T18:30:26.852Z,9.77
2019-04-03T18:32:55.821Z,8.97
2019-04-03T18:35:26.145Z,8.87
2019-04-03T18:37:55.227Z,8.20
2019-04-03T18:40:25.211Z,6.53
2019-04-03T18:42:55.179Z,6.80
2019-04-03T18:45:26.037Z,6.37
2019-04-03T18:47:56.243Z,5.70
2019-04-03T18:50:25.371Z,5.70
2019-04-03T18:52:55.802Z,5.33
2019-04-03T18:55:26.054Z,5.43
2019-04-03T18:57:57.334Z,4.80
2019-04-03T19:00:30.589Z,4.70
2019-04-03T19:03:01.565Z,5.33
2019-04-03T19:05:32.895Z,5.13
2019-04-03T19:08:12.370Z,5.73
2019-04-03T19:10:36.185Z,6.37
2019-04-03T19:13:06.148Z,6.83
2019-04-03T19:15:36.543Z,6.20
2019-04-03T19:18:18.923Z,5.63
2019-04-03T19:20:39.794Z,6.30
2019-04-03T19:23:11.119Z,6.30
2019-04-03T19:25:41.431Z,6.70
2019-04-03T19:28:12.514Z,5.80
2019-04-03T19:30:42.527Z,5.90
2019-04-03T19:33:13.934Z,6.33
2019-04-03T19:35:44.995Z,5.43
2019-04-03T19:38:15.800Z,6.80
2019-04-03T19:40:46.632Z,7.10
2019-04-03T19:43:17.169Z,6.90
2019-04-03T19:45:48.121Z,6.17
2019-04-03T19:48:18.839Z,6.67
2019-04-03T19:50:48.915Z,6.47
2019-04-03T19:53:19.298Z,6.93
2019-04-03T19:55:48.660Z,6.93
2019-04-03T19:58:19.620Z,7.30
2019-04-03T20:00:49.986Z,7.50
2019-04-03T20:03:21.415Z,8.13
2019-04-03T20:05:51.569Z,8.03
2019-04-03T20:08:33.378Z,8.78
2019-04-03T20:11:05.085Z,8.68
2019-04-03T20:13:35.892Z,9.47
2019-04-03T20:16:04.712Z,8.93
2019-04-03T20:18:34.493Z,9.10
2019-04-03T20:21:04.419Z,8.93
2019-04-03T20:23:34.420Z,9.47
2019-04-03T20:26:04.610Z,9.83
2019-04-03T20:28:33.763Z,8.50
2019-04-03T20:31:05.344Z,9.33
2019-04-03T20:33:35.715Z,8.83
2019-04-03T20:36:05.324Z,9.20
2019-04-03T20:38:34.345Z,9.83
2019-04-03T20:41:04.028Z,9.27
2019-04-03T20:43:32.731Z,9.47
2019-04-03T20:46:01.553Z,10.07
2019-04-03T20:48:30.329Z,10.30
2019-04-03T20:50:59.031Z,10.37
2019-04-03T20:53:27.653Z,10.93
2019-04-03T20:55:58.046Z,10.30
2019-04-03T20:58:26.750Z,10.07
2019-04-03T21:01:05.951Z,10.75
2019-04-03T21:03:26.959Z,10.63
2019-04-03T21:05:55.507Z,10.17
2019-04-03T21:08:26.382Z,10.80
2019-04-03T21:10:54.762Z,12.50
2019-04-03T21:13:23.231Z,10.70
2019-04-03T21:15:52.370Z,10.77
2019-04-03T21:18:21.377Z,11.57
2019-04-03T21:20:50.086Z,11.13
2019-04-03T21:23:19.692Z,10.07
2019-04-03T21:25:48.203Z,11.13
2019-04-03T21:28:16.773Z,11.80
2019-04-03T21:30:45.376Z,12.60
2019-04-03T21:33:14.028Z,12.53
2019-04-03T21:35:42.501Z,13.07
2019-04-03T21:38:11.475Z,13.97
2019-04-03T21:40:40.360Z,13.60
2019-04-03T21:43:08.950Z,14.07
2019-04-03T21:45:38.733Z,15.53
2019-04-03T21:48:07.866Z,16.37
2019-04-03T21:50:37.538Z,17.33
2019-04-03T21:53:06.111Z,18.73
2019-04-03T21:55:34.880Z,17.77
2019-04-03T21:58:03.610Z,18.13
2019-04-03T22:01:15.937Z,18.90
2019-04-03T22:03:45.939Z,18.57
2019-04-03T22:06:14.810Z,19.70
2019-04-03T22:08:43.589Z,19.63
2019-04-03T22:11:13.697Z,21.97
2019-04-03T22:13:42.282Z,20.47
2019-04-03T22:16:11.237Z,19.90
2019-04-03T22:18:39.891Z,22.37
2019-04-03T22:21:08.753Z,22.03
2019-04-03T22:23:37.508Z,22.77
2019-04-03T22:26:09.468Z,23.87
2019-04-03T22:28:37.741Z,21.33
2019-04-03T22:31:06.487Z,23.23
2019-04-03T22:33:35.155Z,23.10
2019-04-03T22:36:33.652Z,23.53
2019-04-03T22:39:13.662Z,20.90
2019-04-03T22:41:42.811Z,22.50
2019-04-03T22:44:12.099Z,21.67
2019-04-03T22:46:40.586Z,20.40
2019-04-03T22:49:09.343Z,22.27
2019-04-03T22:51:38.172Z,23.67
2019-04-03T22:54:07.028Z,20.67
2019-04-03T22:56:35.660Z,21.13
2019-04-03T22:59:04.295Z,22.27
2019-04-03T23:01:32.777Z,19.17
2019-04-03T23:04:04.977Z,21.60
2019-04-03T23:06:33.398Z,22.13
2019-04-03T23:09:02.520Z,21.77
2019-04-03T23:11:32.971Z,20.03
2019-04-03T23:14:02.044Z,21.70
2019-04-03T23:16:30.822Z,21.93
2019-04-03T23:18:59.467Z,21.67
2019-04-03T23:21:27.930Z,20.80
2019-04-03T23:23:57.908Z,22.53
2019-04-03T23:26:27.201Z,22.17
2019-04-03T23:28:55.841Z,22.57
2019-04-03T23:31:24.422Z,22.13
2019-04-03T23:33:52.931Z,22.73
2019-04-03T23:36:23.050Z,21.87
2019-04-03T23:38:51.835Z,23.60
2019-04-03T23:41:20.344Z,20.60
2019-04-03T23:43:48.892Z,21.13
2019-04-03T23:46:17.485Z,22.27
2019-04-03T23:48:47.007Z,22.97
2019-04-03T23:51:23.067Z,22.07
2019-04-03T23:53:46.709Z,22.43
2019-04-03T23:56:15.465Z,20.87
2019-04-03T23:58:44.017Z,22.87
